Time;durP1;ratioP1;P1;durP2;ratioP2;P2;SDS_P1;SDS_P2;PMS_P1;PMS_P2;Temp;Humidity;BMP_temperature;BMP_pressure;BME280_temperature;BME280_humidity;BME280_pressure;Samples;Min_cycle;Max_cycle;Signal;HPM_P1;HPM_P2
2021/12/14 00:02:27;;;;;;;59.07;8.07;;;7.50;99.90;;;;;;4993149;28;20235;-49
2021/12/14 00:04:53;;;;;;;47.57;6.47;;;7.40;99.90;;;;;;4993012;28;20228;-48
2021/12/14 00:07:20;;;;;;;47.03;6.47;;;7.50;99.90;;;;;;4993341;28;20178;-49
2021/12/14 00:09:46;;;;;;;54.90;7.53;;;7.40;99.90;;;;;;4991492;28;20198;-49
2021/12/14 00:15:05;;;;;;;68.03;9.07;;;7.50;99.90;;;;;;4992502;28;20158;-49
2021/12/14 00:17:36;;;;;;;43.27;6.00;;;7.40;99.90;;;;;;4993032;28;20154;-49
2021/12/14 00:20:07;;;;;;;29.93;4.37;;;;;;;;;;4992564;28;20185;-49
2021/12/14 00:24:05;;;;;;;50.03;6.77;;;7.70;99.90;;;;;;4992857;28;20233;-49
2021/12/14 00:25:28;;;;;;;52.00;7.07;;;7.70;99.90;;;;;;4992311;28;20421;-49
2021/12/14 00:27:56;;;;;;;38.90;5.47;;;7.80;99.90;;;;;;4992790;28;20550;-48
2021/12/14 00:30:22;;;;;;;50.97;6.90;;;;;;;;;;4990579;28;20202;-49
2021/12/14 00:32:48;;;;;;;59.37;8.07;;;;;;;;;;4992401;28;20194;-48
2021/12/14 00:35:14;;;;;;;46.50;6.37;;;;;;;;;;4992513;28;20209;-49
2021/12/14 00:37:46;;;;;;;50.13;6.87;;;7.50;99.90;;;;;;4992590;28;20186;-49
2021/12/14 00:40:22;;;;;;;50.27;6.77;;;7.70;99.90;;;;;;4992104;28;20193;-49
2021/12/14 00:42:48;;;;;;;64.50;8.57;;;7.20;99.90;;;;;;4992600;28;20229;-49
2021/12/14 00:45:15;;;;;;;49.63;6.70;;;7.70;99.90;;;;;;4991762;28;20210;-49
2021/12/14 00:47:41;;;;;;;48.50;6.67;;;;;;;;;;4992329;28;20185;-49
2021/12/14 00:50:08;;;;;;;48.57;6.73;;;7.40;99.90;;;;;;4992298;28;20201;-49
2021/12/14 00:52:34;;;;;;;43.37;5.97;;;;;;;;;;4992304;28;20202;-49
2021/12/14 00:55:01;;;;;;;58.47;7.73;;;;;;;;;;4991791;28;20178;-48
2021/12/14 00:57:27;;;;;;;54.70;7.30;;;;;;;;;;4990790;28;20549;-48
2021/12/14 00:59:52;;;;;;;55.23;7.40;;;7.40;99.90;;;;;;4991766;28;20625;-49
2021/12/14 01:02:22;;;;;;;47.67;6.53;;;7.40;99.90;;;;;;4992615;28;20200;-48
2021/12/14 01:04:56;;;;;;;59.73;7.97;;;7.40;99.90;;;;;;4991930;28;20604;-49
2021/12/14 01:07:30;;;;;;;58.13;7.90;;;7.40;99.90;;;;;;4991983;28;20170;-48
2021/12/14 01:09:58;;;;;;;52.63;7.17;;;7.30;99.90;;;;;;4991710;28;20194;-49
2021/12/14 01:12:40;;;;;;;53.40;7.23;;;7.20;99.90;;;;;;4991840;28;20201;-48
2021/12/14 01:15:50;;;;;;;58.20;7.93;;;7.40;99.90;;;;;;4991316;28;20220;-49
2021/12/14 01:21:02;;;;;;;38.87;5.47;;;7.20;99.90;;;;;;4992133;28;20176;-49
2021/12/14 01:23:32;;;;;;;52.70;7.10;;;;;;;;;;4991577;28;20158;-49
2021/12/14 01:26:03;;;;;;;48.67;6.63;;;;;;;;;;4991473;28;20518;-49
2021/12/14 01:28:30;;;;;;;55.73;7.57;;;7.30;99.90;;;;;;4991277;28;20154;-48
2021/12/14 01:31:15;;;;;;;50.50;6.83;;;7.30;99.90;;;;;;4991600;28;20734;-48
2021/12/14 01:33:45;;;;;;;52.10;7.10;;;7.30;99.90;;;;;;4991314;28;20684;-49
2021/12/14 01:36:25;;;;;;;62.10;8.37;;;;;;;;;;4991546;28;20153;-49
2021/12/14 01:42:00;;;;;;;50.27;6.93;;;7.20;99.90;;;;;;4968842;28;20302;-48
2021/12/14 01:44:29;;;;;;;53.03;7.07;;;7.20;99.90;;;;;;4987355;28;20213;-49
2021/12/14 01:47:02;;;;;;;50.73;6.90;;;7.20;99.90;;;;;;4991104;28;20666;-49
2021/12/14 01:49:30;;;;;;;61.43;8.13;;;7.30;99.90;;;;;;4991250;28;20550;-49
2021/12/14 01:51:59;;;;;;;56.43;7.60;;;7.30;99.90;;;;;;4991241;28;20186;-49
2021/12/14 01:54:30;;;;;;;47.57;6.53;;;7.40;99.90;;;;;;4991021;28;20224;-49
2021/12/14 01:56:56;;;;;;;57.23;7.70;;;;;;;;;;4991409;28;20634;-49
2021/12/14 01:59:28;;;;;;;54.13;7.20;;;7.40;99.90;;;;;;4990949;28;20185;-49
2021/12/14 02:02:18;;;;;;;46.00;6.37;;;7.00;99.90;;;;;;4991299;28;20582;-49
2021/12/14 02:04:45;;;;;;;52.80;7.10;;;7.30;99.90;;;;;;4991155;28;20601;-49
2021/12/14 02:07:12;;;;;;;66.97;8.77;;;6.90;99.90;;;;;;4990776;28;20208;-49
2021/12/14 02:09:39;;;;;;;53.20;7.13;;;;;;;;;;4990701;28;20232;-49
2021/12/14 02:12:26;;;;;;;55.90;7.53;;;7.20;99.90;;;;;;4990655;28;20244;-49
2021/12/14 02:15:00;;;;;;;60.30;8.07;;;7.20;99.90;;;;;;4989061;28;20180;-49
2021/12/14 02:17:26;;;;;;;51.37;6.90;;;;;;;;;;4990846;28;20166;-49
2021/12/14 02:19:52;;;;;;;54.80;7.27;;;7.20;99.90;;;;;;4990813;28;20185;-49
2021/12/14 02:22:18;;;;;;;60.17;8.10;;;7.10;99.90;;;;;;4990606;28;20193;-49
2021/12/14 02:24:48;;;;;;;62.50;8.30;;;7.30;99.90;;;;;;4990451;28;20178;-49
2021/12/14 02:27:14;;;;;;;50.10;6.80;;;;;;;;;;4990638;28;20182;-48
2021/12/14 02:29:43;;;;;;;42.03;5.87;;;7.20;99.90;;;;;;4990377;28;20521;-49
2021/12/14 02:32:16;;;;;;;49.97;6.80;;;7.20;99.90;;;;;;4990312;28;20197;-49
2021/12/14 02:34:54;;;;;;;57.07;7.57;;;7.10;99.90;;;;;;4990698;28;20212;-49
2021/12/14 02:37:23;;;;;;;49.30;6.70;;;7.20;99.90;;;;;;4990749;28;20196;-49
2021/12/14 02:40:02;;;;;;;64.73;8.60;;;;;;;;;;4990045;28;20201;-49
2021/12/14 02:42:30;;;;;;;55.50;7.40;;;7.20;99.90;;;;;;4990932;28;20236;-49
2021/12/14 02:44:58;;;;;;;45.77;6.30;;;7.20;99.90;;;;;;4990096;28;20210;-49
2021/12/14 02:47:24;;;;;;;52.43;7.13;;;7.20;99.90;;;;;;4990825;28;20303;-49
2021/12/14 02:49:50;;;;;;;58.63;7.83;;;7.00;99.90;;;;;;4990486;28;20201;-49
2021/12/14 02:52:25;;;;;;;56.27;7.57;;;7.20;99.90;;;;;;4991089;28;20204;-49
2021/12/14 02:54:57;;;;;;;47.37;6.50;;;7.20;99.90;;;;;;4994323;28;20184;-49
2021/12/14 02:57:26;;;;;;;44.73;6.10;;;7.20;99.90;;;;;;4994393;28;20170;-49
2021/12/14 02:59:54;;;;;;;52.50;6.97;;;7.50;99.90;;;;;;4994012;28;20693;-49
2021/12/14 03:02:26;;;;;;;40.97;5.70;;;7.10;99.90;;;;;;4994252;28;20206;-48
2021/12/14 03:04:56;;;;;;;54.67;7.40;;;7.10;99.90;;;;;;4994077;28;20180;-49
2021/12/14 03:07:26;;;;;;;58.63;7.87;;;7.60;99.90;;;;;;4994009;28;20194;-49
2021/12/14 03:10:00;;;;;;;39.10;5.47;;;7.10;99.90;;;;;;4993612;28;20666;-49
2021/12/14 03:12:39;;;;;;;52.80;7.10;;;7.10;99.90;;;;;;4994107;28;20201;-49
2021/12/14 03:15:22;;;;;;;67.00;8.87;;;7.00;99.90;;;;;;4991931;28;20161;-49
2021/12/14 03:17:53;;;;;;;55.73;7.57;;;7.30;99.90;;;;;;4994009;28;20162;-49
2021/12/14 03:20:41;;;;;;;58.03;7.90;;;7.10;99.90;;;;;;4994289;28;20507;-48
2021/12/14 03:23:13;;;;;;;55.27;7.37;;;7.10;99.90;;;;;;4993629;28;20629;-48
2021/12/14 03:25:43;;;;;;;49.93;6.80;;;7.00;99.90;;;;;;4992428;28;20631;-49
2021/12/14 03:28:11;;;;;;;59.77;8.13;;;6.90;99.90;;;;;;4993999;28;20185;-49
2021/12/14 03:30:51;;;;;;;65.90;8.67;;;7.30;99.90;;;;;;4993446;28;20201;-49
2021/12/14 03:33:24;;;;;;;47.13;6.43;;;7.10;99.90;;;;;;4993685;28;20622;-49
2021/12/14 03:35:56;;;;;;;48.50;6.57;;;7.10;99.90;;;;;;4993759;28;20670;-49
2021/12/14 03:38:28;;;;;;;49.40;6.70;;;7.10;99.90;;;;;;4993387;28;20538;-49
2021/12/14 03:41:02;;;;;;;55.23;7.47;;;7.10;99.90;;;;;;4993248;28;20271;-48
2021/12/14 03:43:29;;;;;;;46.17;6.27;;;6.90;99.90;;;;;;4993201;28;20181;-48
2021/12/14 03:45:55;;;;;;;64.07;8.57;;;7.20;99.90;;;;;;4993126;28;20217;-49
2021/12/14 03:48:28;;;;;;;43.23;5.90;;;7.10;99.90;;;;;;4993464;28;20256;-48
2021/12/14 03:50:55;;;;;;;42.47;5.93;;;;;;;;;;4993441;28;20202;-48
2021/12/14 03:53:23;;;;;;;61.83;8.23;;;7.00;99.90;;;;;;4993030;28;20204;-49
2021/12/14 03:55:56;;;;;;;64.83;8.67;;;7.00;99.90;;;;;;4992879;28;20562;-49
2021/12/14 03:58:25;;;;;;;68.57;9.10;;;6.90;99.90;;;;;;4993194;28;20174;-49
2021/12/14 04:00:56;;;;;;;52.17;7.00;;;7.00;99.90;;;;;;4992883;28;20253;-49
2021/12/14 04:03:25;;;;;;;69.10;9.07;;;6.90;99.90;;;;;;4992628;28;20236;-48
2021/12/14 04:05:51;;;;;;;44.07;6.10;;;;;;;;;;4992564;28;20178;-49
2021/12/14 04:08:19;;;;;;;45.57;6.30;;;7.00;99.90;;;;;;4992953;28;20196;-49
2021/12/14 04:10:47;;;;;;;53.60;7.27;;;6.80;99.90;;;;;;4992834;28;20197;-49
2021/12/14 04:13:24;;;;;;;62.13;8.37;;;7.00;99.90;;;;;;4992375;28;20606;-49
2021/12/14 04:15:51;;;;;;;43.10;5.93;;;7.00;99.90;;;;;;4992747;28;20166;-49
2021/12/14 04:18:17;;;;;;;42.17;5.87;;;6.80;99.90;;;;;;4993037;28;20174;-49
2021/12/14 04:20:45;;;;;;;44.43;6.00;;;7.10;99.90;;;;;;4991751;28;20266;-49
2021/12/14 04:23:13;;;;;;;73.63;9.67;;;;;;;;;;4992409;28;20570;-49
2021/12/14 04:25:39;;;;;;;53.27;7.10;;;;;;;;;;4992578;28;20181;-49
2021/12/14 04:28:09;;;;;;;36.03;5.07;;;7.10;99.90;;;;;;4992397;28;20188;-49
2021/12/14 04:30:36;;;;;;;51.60;7.03;;;6.90;99.90;;;;;;4992500;28;20677;-49
2021/12/14 04:33:05;;;;;;;41.07;5.77;;;7.10;99.90;;;;;;4992408;28;20201;-49
2021/12/14 04:35:37;;;;;;;28.23;4.17;;;6.90;99.90;;;;;;4992534;28;20264;-48
2021/12/14 04:38:11;;;;;;;33.00;4.63;;;2.20;99.90;;;;;;4992711;28;20162;-48
2021/12/14 04:51:57;;;;;;;55.57;7.40;;;;;;;;;;4992094;28;20189;-49
2021/12/14 04:51:59;;;;;;;32.60;4.57;;;;;;;;;;4992612;28;20256;-49
2021/12/14 04:54:28;;;;;;;36.93;5.10;;;6.60;99.90;;;;;;4992540;28;20158;-49
2021/12/14 04:56:54;;;;;;;36.63;5.07;;;;;;;;;;4992550;28;20258;-49
2021/12/14 04:59:27;;;;;;;22.53;3.30;;;6.90;99.90;;;;;;4992459;28;20205;-49
2021/12/14 05:02:16;;;;;;;31.87;4.43;;;7.10;99.90;;;;;;4992640;28;20194;-49
2021/12/14 05:04:42;;;;;;;23.23;3.40;;;;;;;;;;4992467;28;20244;-49
2021/12/14 05:10:05;;;;;;;32.87;4.67;;;6.90;99.90;;;;;;4983304;28;20756;-49
2021/12/14 05:12:33;;;;;;;6.90;1.37;;;6.80;99.90;;;;;;4992327;28;20206;-49
2021/12/14 05:15:03;;;;;;;35.13;4.87;;;6.80;99.90;;;;;;4991687;28;20170;-49
2021/12/14 05:17:32;;;;;;;28.20;4.10;;;7.10;99.90;;;;;;4991350;28;20520;-49
2021/12/14 05:19:59;;;;;;;39.43;5.43;;;6.80;99.90;;;;;;4990921;28;20189;-49
2021/12/14 05:22:30;;;;;;;20.20;3.10;;;6.90;99.90;;;;;;4992265;28;20236;-49
2021/12/14 05:25:00;;;;;;;33.77;4.77;;;6.90;99.90;;;;;;4991717;28;20233;-49
2021/12/14 05:27:35;;;;;;;44.57;6.17;;;6.90;99.90;;;;;;4992171;28;20166;-49
2021/12/14 05:30:12;;;;;;;29.47;4.10;;;6.60;99.90;;;;;;4991713;28;20198;-49
2021/12/14 05:32:39;;;;;;;58.13;7.70;;;6.90;99.90;;;;;;4991998;28;20197;-48
2021/12/14 05:35:09;;;;;;;45.00;6.13;;;7.10;99.90;;;;;;4991122;28;20173;-49
2021/12/14 05:37:44;;;;;;;30.67;4.40;;;7.20;99.90;;;;;;4992207;28;20578;-49
2021/12/14 05:40:19;;;;;;;33.00;4.70;;;6.70;99.90;;;;;;4991396;28;20193;-49
2021/12/14 05:45:29;;;;;;;31.67;4.57;;;7.00;99.90;;;;;;4991745;28;20180;-49
2021/12/14 05:47:57;;;;;;;30.27;4.33;;;6.90;99.90;;;;;;4991632;28;20264;-49
2021/12/14 05:50:32;;;;;;;29.63;4.23;;;6.90;99.90;;;;;;4991572;28;20205;-48
2021/12/14 05:52:59;;;;;;;33.63;4.80;;;6.80;99.90;;;;;;4991846;28;20201;-49
2021/12/14 05:55:29;;;;;;;37.97;5.30;;;7.00;99.90;;;;;;4991083;28;20182;-49
2021/12/14 05:57:57;;;;;;;34.73;4.87;;;6.80;99.90;;;;;;4991552;28;20162;-48
2021/12/14 06:00:22;;;;;;;48.90;6.63;;;6.80;99.90;;;;;;4990977;28;20260;-49
2021/12/14 06:02:48;;;;;;;33.57;4.73;;;7.10;99.90;;;;;;4991347;28;20284;-49
2021/12/14 06:05:17;;;;;;;63.47;8.27;;;6.90;99.90;;;;;;4991062;28;20222;-49
2021/12/14 06:07:44;;;;;;;38.37;5.27;;;;;;;;;;4991399;28;20680;-49
2021/12/14 06:10:12;;;;;;;34.63;4.77;;;6.90;99.90;;;;;;4990489;28;20836;-49
2021/12/14 06:12:39;;;;;;;41.93;5.63;;;6.90;99.90;;;;;;4990988;28;20204;-49
2021/12/14 06:15:10;;;;;;;44.40;6.10;;;6.90;99.90;;;;;;4990735;28;20181;-49
2021/12/14 06:17:40;;;;;;;28.53;4.00;;;6.90;99.90;;;;;;4991361;28;20166;-49
2021/12/14 06:20:07;;;;;;;54.60;7.40;;;7.00;99.90;;;;;;4989729;28;20209;-49
2021/12/14 06:22:35;;;;;;;60.60;7.93;;;6.90;99.90;;;;;;4990892;28;20228;-49
2021/12/14 06:25:06;;;;;;;55.77;7.30;;;6.80;99.90;;;;;;4990580;28;20194;-49
2021/12/14 06:27:32;;;;;;;35.20;4.87;;;6.80;99.90;;;;;;4992721;28;20699;-49
2021/12/14 06:29:59;;;;;;;41.73;5.73;;;7.10;99.90;;;;;;4994640;28;20562;-49
2021/12/14 06:32:32;;;;;;;24.47;3.57;;;6.80;99.90;;;;;;4995263;28;20601;-49
2021/12/14 06:35:16;;;;;;;45.07;6.20;;;6.80;99.90;;;;;;4995329;28;20158;-48
2021/12/14 06:38:22;;;;;;;50.60;6.87;;;7.00;99.90;;;;;;4994044;28;20150;-48
2021/12/14 06:41:08;;;;;;;32.80;4.63;;;6.80;99.90;;;;;;4993420;28;20185;-48
2021/12/14 06:43:40;;;;;;;34.53;4.87;;;6.80;99.90;;;;;;4992989;28;20166;-49
2021/12/14 06:46:13;;;;;;;49.23;6.67;;;6.80;99.90;;;;;;4994628;28;20192;-49
2021/12/14 06:48:40;;;;;;;32.63;4.53;;;6.70;99.90;;;;;;4995366;28;20170;-48
2021/12/14 06:51:31;;;;;;;36.07;5.00;;;6.80;99.90;;;;;;4994764;28;20248;-48
2021/12/14 06:54:11;;;;;;;40.17;5.60;;;6.70;99.90;;;;;;4994519;28;20165;-48
2021/12/14 06:56:38;;;;;;;29.77;4.20;;;6.80;99.90;;;;;;4994305;28;20154;-48
2021/12/14 06:59:15;;;;;;;18.37;2.80;;;6.80;99.90;;;;;;4994480;28;20745;-48
2021/12/14 07:01:48;;;;;;;55.77;7.43;;;6.20;99.90;;;;;;4994486;28;20192;-48
2021/12/14 07:04:22;;;;;;;34.30;4.80;;;6.80;99.90;;;;;;4994846;28;20162;-47
2021/12/14 07:06:52;;;;;;;40.23;5.63;;;6.80;99.90;;;;;;4994236;28;20668;-48
2021/12/14 07:09:33;;;;;;;36.43;5.00;;;6.60;99.90;;;;;;4994251;28;20174;-47
2021/12/14 07:11:59;;;;;;;47.83;6.30;;;;;;;;;;4994215;28;20263;-47
2021/12/14 07:14:37;;;;;;;44.93;6.00;;;6.80;99.90;;;;;;4992440;28;20177;-47
2021/12/14 07:17:18;;;;;;;63.67;8.27;;;6.80;99.90;;;;;;4994092;28;20488;-48
2021/12/14 07:19:56;;;;;;;48.27;6.40;;;6.80;99.90;;;;;;4993770;28;20161;-49
2021/12/14 07:22:31;;;;;;;57.23;7.40;;;6.50;99.90;;;;;;4994258;28;20202;-49
2021/12/14 07:25:08;;;;;;;77.00;9.83;;;7.00;99.90;;;;;;4993764;28;20150;-48
2021/12/14 07:27:38;;;;;;;59.43;7.70;;;;;;;;;;4993978;28;20365;-49
2021/12/14 07:30:16;;;;;;;56.20;7.27;;;6.80;99.90;;;;;;4993282;28;20248;-48
2021/12/14 07:33:05;;;;;;;57.73;7.60;;;6.80;99.90;;;;;;4993639;28;20190;-48
2021/12/14 07:36:12;;;;;;;37.73;5.27;;;6.70;99.90;;;;;;4993702;28;20184;-49
2021/12/14 07:38:38;;;;;;;24.83;3.63;;;6.80;99.90;;;;;;4949746;28;20186;-49
2021/12/14 07:41:18;;;;;;;41.40;5.57;;;6.70;99.90;;;;;;4993293;28;20217;-48
2021/12/14 07:43:57;;;;;;;44.55;6.45;;;6.90;99.90;;;;;;4993586;28;20420;-48
2021/12/14 07:46:46;;;;;;;53.07;7.27;;;6.80;99.90;;;;;;4993777;28;20158;-48
2021/12/14 07:49:29;;;;;;;39.83;5.43;;;6.80;99.90;;;;;;4993736;28;20166;-48
2021/12/14 07:52:11;;;;;;;50.00;6.83;;;6.80;99.90;;;;;;4993547;28;20201;-48
2021/12/14 07:54:40;;;;;;;35.27;5.10;;;6.70;99.90;;;;;;4993170;28;20165;-48
2021/12/14 07:57:30;;;;;;;31.50;4.33;;;6.90;99.90;;;;;;4993467;28;20535;-48
2021/12/14 08:00:19;;;;;;;49.23;6.60;;;6.80;99.90;;;;;;4993218;28;20162;-48
2021/12/14 08:02:49;;;;;;;30.57;4.30;;;6.80;99.90;;;;;;4993425;28;20201;-48
2021/12/14 08:05:15;;;;;;;34.63;4.83;;;;;;;;;;4993258;28;20201;-47
2021/12/14 08:07:48;;;;;;;19.77;2.90;;;6.60;99.90;;;;;;4992369;28;20216;-49
2021/12/14 08:10:27;;;;;;;15.90;2.27;;;6.80;99.90;;;;;;4993437;28;20201;-48
2021/12/14 08:13:07;;;;;;;30.53;4.33;;;6.80;99.90;;;;;;4993192;28;20545;-48
2021/12/14 08:15:43;;;;;;;34.77;4.77;;;6.80;99.90;;;;;;4993271;28;20162;-48
2021/12/14 08:18:09;;;;;;;28.77;4.10;;;;;;;;;;4976787;28;20170;-48
2021/12/14 08:20:40;;;;;;;30.80;4.33;;;6.80;99.90;;;;;;4993323;28;20705;-48
2021/12/14 08:23:17;;;;;;;45.37;6.20;;;6.80;99.90;;;;;;4992790;28;20273;-48
2021/12/14 08:25:43;;;;;;;31.17;4.47;;;7.00;99.90;;;;;;4993073;28;20173;-48
2021/12/14 08:28:09;;;;;;;37.00;5.10;;;6.70;99.90;;;;;;4993077;28;20589;-48
2021/12/14 08:30:40;;;;;;;32.07;4.50;;;6.70;99.90;;;;;;4993273;28;20198;-48
2021/12/14 08:33:18;;;;;;;38.50;5.27;;;6.70;99.90;;;;;;4992879;28;20190;-50
2021/12/14 08:35:44;;;;;;;136.97;17.90;;;;;;;;;;4974326;28;20181;-51
2021/12/14 08:38:10;;;;;;;82.30;10.63;;;;;;;;;;4966354;28;20170;-51
2021/12/14 08:40:41;;;;;;;114.63;15.00;;;6.80;99.90;;;;;;4971175;28;20252;-51
2021/12/14 08:43:23;;;;;;;87.77;11.33;;;6.80;99.90;;;;;;4969124;28;20233;-51
2021/12/14 08:46:13;;;;;;;46.17;6.53;;;6.80;99.90;;;;;;4975780;28;20178;-51
2021/12/14 08:48:51;;;;;;;49.77;6.77;;;6.90;99.90;;;;;;4969867;28;20191;-51
2021/12/14 08:51:29;;;;;;;68.33;9.20;;;6.90;99.90;;;;;;4970236;28;20240;-50
2021/12/14 08:54:07;;;;;;;67.87;9.30;;;6.80;99.90;;;;;;4976853;28;20232;-51
2021/12/14 08:56:37;;;;;;;63.67;8.70;;;7.20;99.90;;;;;;4972000;28;20542;-51
2021/12/14 08:59:04;;;;;;;66.97;9.10;;;6.80;99.90;;;;;;4974969;28;20735;-50
2021/12/14 09:01:33;;;;;;;66.47;9.00;;;6.80;99.90;;;;;;4981575;28;20256;-52
2021/12/14 09:04:10;;;;;;;88.47;11.77;;;6.90;99.90;;;;;;4972154;28;20200;-51
2021/12/14 09:06:40;;;;;;;77.60;10.40;;;6.90;99.90;;;;;;4977798;28;20285;-51
2021/12/14 09:09:11;;;;;;;65.03;9.00;;;6.90;99.90;;;;;;4975000;28;20181;-51
2021/12/14 09:11:39;;;;;;;54.03;7.57;;;6.90;99.90;;;;;;4973674;28;20214;-51
2021/12/14 09:14:09;;;;;;;66.73;9.00;;;6.80;99.90;;;;;;4980348;28;20190;-51
2021/12/14 09:16:35;;;;;;;141.73;18.97;;;;;;;;;;4973503;28;20181;-51
2021/12/14 09:19:21;;;;;;;68.60;9.30;;;6.90;99.90;;;;;;4975898;28;20265;-51
2021/12/14 09:21:52;;;;;;;86.97;11.40;;;6.80;99.90;;;;;;4973776;28;20322;-51
2021/12/14 09:24:21;;;;;;;80.80;10.70;;;6.90;99.90;;;;;;4978785;28;20594;-50
2021/12/14 09:26:52;;;;;;;59.60;8.23;;;7.10;99.90;;;;;;4977553;28;20583;-51
2021/12/14 09:29:20;;;;;;;60.43;8.00;;;7.00;99.90;;;;;;4975251;28;20182;-51
2021/12/14 09:31:50;;;;;;;64.60;8.73;;;7.00;99.90;;;;;;4973890;28;20205;-50
2021/12/14 09:34:20;;;;;;;69.33;9.53;;;7.20;99.90;;;;;;4968536;28;20674;-51
2021/12/14 09:36:46;;;;;;;70.30;9.43;;;7.10;99.90;;;;;;4975440;28;20224;-51
2021/12/14 09:39:16;;;;;;;83.90;11.10;;;7.00;99.90;;;;;;4973143;28;20202;-51
2021/12/14 09:41:45;;;;;;;76.23;10.17;;;7.00;99.90;;;;;;4975044;28;20257;-50
2021/12/14 09:44:14;;;;;;;70.90;9.50;;;7.00;99.90;;;;;;4978521;28;20201;-50
2021/12/14 09:46:41;;;;;;;173.00;22.27;;;6.80;99.90;;;;;;4971071;28;20186;-50
2021/12/14 09:49:09;;;;;;;129.17;17.17;;;6.90;99.90;;;;;;4955698;28;20654;-50
2021/12/14 09:51:52;;;;;;;154.40;20.40;;;7.00;99.90;;;;;;4966685;28;20806;-51
2021/12/14 09:54:20;;;;;;;111.33;14.57;;;7.00;99.90;;;;;;4956414;28;20241;-51
2021/12/14 09:56:50;;;;;;;83.93;11.30;;;7.00;99.90;;;;;;4956170;28;20270;-51
2021/12/14 09:59:17;;;;;;;237.47;31.40;;;7.00;99.90;;;;;;4966959;28;20186;-51
2021/12/14 10:02:09;;;;;;;192.43;25.13;;;7.00;99.90;;;;;;4957999;28;20205;-53
2021/12/14 10:04:40;;;;;;;126.17;16.80;;;7.10;99.90;;;;;;4970837;28;20280;-51
2021/12/14 10:07:08;;;;;;;119.50;15.97;;;7.00;99.90;;;;;;4973491;28;20360;-51
2021/12/14 10:09:41;;;;;;;90.43;12.07;;;7.10;99.90;;;;;;4976703;28;20193;-51
2021/12/14 10:14:58;;;;;;;110.17;14.53;;;6.70;99.90;;;;;;4963265;28;20586;-51
2021/12/14 10:17:26;;;;;;;111.80;14.80;;;7.10;99.90;;;;;;4966214;28;20181;-53
2021/12/14 10:19:54;;;;;;;93.33;12.43;;;7.20;99.90;;;;;;4963626;28;20213;-51
2021/12/14 10:22:28;;;;;;;56.50;7.77;;;7.20;99.90;;;;;;4971102;28;20216;-51
2021/12/14 10:24:57;;;;;;;74.40;9.83;;;8.20;99.90;;;;;;4976484;28;20188;-51
2021/12/14 10:27:25;;;;;;;169.33;21.77;;;7.10;99.90;;;;;;4962269;28;20194;-51
2021/12/14 10:29:52;;;;;;;118.70;15.83;;;7.00;99.90;;;;;;4965030;28;20771;-52
2021/12/14 10:32:26;;;;;;;63.60;8.73;;;7.00;99.90;;;;;;4975384;28;20212;-51
2021/12/14 10:34:59;;;;;;;64.23;8.73;;;7.00;99.90;;;;;;4977608;28;20190;-51
2021/12/14 10:37:50;;;;;;;107.13;14.40;;;7.10;99.90;;;;;;4967657;28;20712;-52
2021/12/14 10:45:33;;;;;;;90.87;11.87;;;;;;;;;;4966477;28;20190;-51
2021/12/14 10:48:00;;;;;;;52.17;7.30;;;7.00;99.90;;;;;;4966085;28;20606;-51
2021/12/14 10:50:35;;;;;;;100.83;13.47;;;6.80;99.90;;;;;;4967547;28;20312;-51
2021/12/14 10:53:04;;;;;;;51.93;7.10;;;7.10;99.90;;;;;;4969501;28;20205;-52
2021/12/14 10:55:43;;;;;;;171.40;22.57;;;6.90;99.90;;;;;;4962514;28;20185;-51
2021/12/14 10:58:10;;;;;;;127.97;16.83;;;7.00;99.90;;;;;;4968243;28;20178;-51
2021/12/14 11:00:36;;;;;;;79.37;10.73;;;;;;;;;;4967788;28;20182;-51
2021/12/14 11:03:08;;;;;;;158.63;20.73;;;7.00;99.90;;;;;;4965135;28;20241;-51
2021/12/14 11:05:36;;;;;;;52.23;7.37;;;7.00;99.90;;;;;;4969053;28;20272;-51
2021/12/14 11:08:05;;;;;;;156.87;20.73;;;7.10;99.90;;;;;;4966641;28;20360;-51
2021/12/14 11:10:38;;;;;;;57.77;7.97;;;7.10;99.90;;;;;;4970530;28;20201;-52
2021/12/14 11:13:08;;;;;;;155.67;20.40;;;7.00;99.90;;;;;;4964075;28;20213;-51
2021/12/14 11:15:40;;;;;;;40.90;5.97;;;7.00;99.90;;;;;;4971996;28;20620;-50
2021/12/14 11:18:11;;;;;;;104.00;14.00;;;7.00;99.90;;;;;;4977511;28;20331;-52
2021/12/14 11:20:37;;;;;;;152.30;19.87;;;;;;;;;;4966384;28;20200;-51
2021/12/14 11:23:03;;;;;;;137.23;17.83;;;;;;;;;;4966140;28;20206;-51
2021/12/14 11:25:31;;;;;;;97.47;13.10;;;7.10;99.90;;;;;;4964262;28;20198;-52
2021/12/14 11:27:58;;;;;;;105.93;14.17;;;;;;;;;;4963546;28;20181;-50
2021/12/14 11:30:24;;;;;;;62.83;9.00;;;;;;;;;;4973519;28;20194;-51
2021/12/14 11:33:15;;;;;;;61.43;8.40;;;7.90;99.90;;;;;;4973478;28;20197;-51
2021/12/14 11:35:46;;;;;;;80.63;10.97;;;7.80;99.90;;;;;;4973418;28;20273;-51
2021/12/14 11:38:42;;;;;;;152.80;19.87;;;7.90;99.90;;;;;;4966019;28;20189;-51
2021/12/14 11:41:41;;;;;;;58.53;8.20;;;7.90;99.90;;;;;;4972770;28;20284;-51
2021/12/14 11:44:20;;;;;;;122.30;16.20;;;7.60;99.90;;;;;;4969377;28;20189;-52
2021/12/14 11:46:58;;;;;;;46.00;6.57;;;7.50;99.90;;;;;;4972428;28;20204;-51
2021/12/14 11:49:45;;;;;;;90.03;12.00;;;7.40;99.90;;;;;;4974684;28;20192;-50
2021/12/14 11:52:11;;;;;;;107.77;14.27;;;;;;;;;;4967441;28;20198;-51
2021/12/14 11:54:44;;;;;;;108.73;14.13;;;7.20;99.90;;;;;;4962499;28;20181;-51
2021/12/14 11:57:10;;;;;;;69.17;9.57;;;;;;;;;;4976768;28;20190;-51
2021/12/14 11:59:36;;;;;;;62.77;8.70;;;7.20;99.90;;;;;;4975933;28;20539;-52
2021/12/14 12:02:02;;;;;;;53.53;7.50;;;;;;;;;;4986052;28;20210;-51
2021/12/14 12:04:43;;;;;;;35.17;5.27;;;7.10;99.90;;;;;;4977235;28;20192;-50
2021/12/14 12:09:56;;;;;;;53.80;7.50;;;7.30;99.90;;;;;;4983687;28;20186;-50
2021/12/14 12:12:31;;;;;;;50.67;7.10;;;7.30;99.90;;;;;;4994509;28;20201;-50
2021/12/14 12:15:10;;;;;;;66.43;9.10;;;7.40;99.90;;;;;;4980943;28;20354;-54
2021/12/14 12:17:36;;;;;;;51.57;7.20;;;;;;;;;;4974676;28;20201;-50
2021/12/14 12:20:26;;;;;;;66.90;9.20;;;7.30;99.90;;;;;;4971020;28;20570;-50
2021/12/14 12:23:02;;;;;;;73.80;10.13;;;7.30;99.90;;;;;;4975905;28;20267;-50
2021/12/14 12:25:32;;;;;;;71.87;9.87;;;7.20;99.90;;;;;;4977743;28;20178;-51
2021/12/14 12:28:06;;;;;;;65.87;9.13;;;7.10;99.90;;;;;;4980461;28;20198;-51
2021/12/14 12:30:40;;;;;;;43.73;6.27;;;7.30;99.90;;;;;;4978880;28;20661;-50
2021/12/14 12:33:35;;;;;;;43.83;6.27;;;7.40;99.90;;;;;;4977279;28;20229;-51
2021/12/14 12:36:18;;;;;;;67.40;8.87;;;7.30;99.90;;;;;;4957320;28;20444;-50
2021/12/14 12:38:54;;;;;;;86.23;11.77;;;7.30;99.90;;;;;;4969168;28;20212;-51
2021/12/14 12:41:47;;;;;;;118.07;15.87;;;7.30;99.90;;;;;;4959738;28;20550;-49
2021/12/14 12:44:17;;;;;;;77.17;10.60;;;7.30;99.90;;;;;;4968238;28;20286;-50
2021/12/14 12:46:54;;;;;;;96.57;12.87;;;7.30;99.90;;;;;;4980371;28;20760;-50
2021/12/14 12:49:30;;;;;;;115.13;15.37;;;7.30;99.90;;;;;;4972094;28;20673;-51
2021/12/14 12:52:00;;;;;;;71.93;9.90;;;7.30;99.90;;;;;;4972372;28;20578;-50
2021/12/14 12:54:26;;;;;;;62.83;8.57;;;;;;;;;;4972375;28;20634;-50
2021/12/14 12:57:13;;;;;;;76.33;10.53;;;7.40;99.90;;;;;;4967474;28;20301;-50
2021/12/14 12:59:57;;;;;;;86.73;11.70;;;7.40;99.90;;;;;;4968933;28;20648;-50
2021/12/14 13:02:30;;;;;;;96.37;12.97;;;7.40;99.90;;;;;;4974046;28;20209;-50
2021/12/14 13:05:07;;;;;;;91.10;12.50;;;7.00;99.90;;;;;;4972819;28;20185;-51
2021/12/14 13:07:43;;;;;;;105.47;14.07;;;7.50;99.90;;;;;;4975527;28;20192;-50
2021/12/14 13:10:16;;;;;;;147.37;19.57;;;7.50;99.90;;;;;;4970398;28;20682;-51
2021/12/14 13:12:48;;;;;;;55.53;7.70;;;7.50;99.90;;;;;;4966294;28;20218;-50
2021/12/14 13:15:36;;;;;;;60.97;8.30;;;7.70;99.90;;;;;;4977002;28;20201;-51
2021/12/14 13:18:22;;;;;;;65.13;8.70;;;7.50;99.90;;;;;;4980550;28;20268;-50
2021/12/14 13:21:02;;;;;;;45.73;6.60;;;7.40;99.90;;;;;;4983356;28;20289;-51
2021/12/14 13:23:58;;;;;;;131.60;17.00;;;7.70;99.90;;;;;;4974371;28;20200;-51
2021/12/14 13:26:44;;;;;;;102.83;13.67;;;7.30;99.90;;;;;;4968319;28;20712;-51
2021/12/14 13:29:15;;;;;;;168.20;21.20;;;7.50;99.90;;;;;;4968535;28;20192;-50
2021/12/14 13:31:50;;;;;;;35.17;5.10;;;7.50;99.90;;;;;;4965658;28;20733;-51
2021/12/14 13:34:43;;;;;;;45.10;6.40;;;7.50;99.90;;;;;;4975353;28;20185;-50
2021/12/14 13:37:12;;;;;;;120.40;15.80;;;7.50;99.90;;;;;;4974732;28;20662;-51
2021/12/14 13:39:39;;;;;;;90.40;11.90;;;7.30;99.90;;;;;;4971295;28;20189;-51
2021/12/14 13:42:07;;;;;;;124.60;16.07;;;;;;;;;;4967125;28;20208;-50
2021/12/14 13:44:48;;;;;;;116.23;15.27;;;7.50;99.90;;;;;;4976849;28;20186;-51
2021/12/14 13:47:15;;;;;;;145.67;19.30;;;;;;;;;;4967888;28;20930;-50
2021/12/14 13:49:41;;;;;;;54.27;7.70;;;7.50;99.90;;;;;;4972339;28;20190;-50
2021/12/14 13:52:10;;;;;;;60.57;8.33;;;7.50;99.90;;;;;;4961750;28;20208;-50
2021/12/14 13:55:14;;;;;;;214.17;28.10;;;7.50;99.90;;;;;;4967471;28;20269;-50
2021/12/14 13:58:01;;;;;;;144.83;19.27;;;7.50;99.90;;;;;;4968028;28;20182;-50
2021/12/14 14:00:47;;;;;;;81.67;10.97;;;7.40;99.90;;;;;;4975860;28;20284;-51